createdAt,value
2023-04-16T00:00:17.522Z,92493.00
2023-04-16T00:01:17.550Z,92493.00
2023-04-16T00:02:17.821Z,92493.00
2023-04-16T00:03:17.825Z,92495.00
2023-04-16T00:04:17.809Z,92495.00
2023-04-16T00:05:17.773Z,92493.00
2023-04-16T00:06:17.842Z,92491.00
2023-04-16T00:07:17.902Z,92493.00
2023-04-16T00:08:17.976Z,92493.00
2023-04-16T00:09:18.029Z,92493.00
2023-04-16T00:10:18.084Z,92493.00
2023-04-16T00:11:18.168Z,92489.00
2023-04-16T00:12:18.196Z,92495.00
2023-04-16T00:13:18.225Z,92495.00
2023-04-16T00:14:18.274Z,92489.00
2023-04-16T00:15:18.314Z,92489.00
2023-04-16T00:16:18.406Z,92493.00
2023-04-16T00:17:19.062Z,92491.00
2023-04-16T00:18:18.535Z,92485.00
2023-04-16T00:19:18.527Z,92491.00
2023-04-16T00:20:18.549Z,92487.00
2023-04-16T00:21:18.580Z,92487.00
2023-04-16T00:22:18.666Z,92485.00
2023-04-16T00:23:18.641Z,92487.00
2023-04-16T00:24:18.668Z,92489.00
2023-04-16T00:25:18.701Z,92487.00
2023-04-16T00:26:18.745Z,92483.00
2023-04-16T00:27:18.791Z,92487.00
2023-04-16T00:28:18.873Z,92491.00
2023-04-16T00:29:18.901Z,92487.00
2023-04-16T00:30:18.984Z,92489.00
2023-04-16T00:31:18.958Z,92489.00
2023-04-16T00:32:19.041Z,92489.00
2023-04-16T00:33:18.994Z,92489.00
2023-04-16T00:34:19.003Z,92489.00
2023-04-16T00:35:19.023Z,92491.00
2023-04-16T00:36:19.053Z,92491.00
2023-04-16T00:37:19.066Z,92491.00
2023-04-16T00:38:19.073Z,92491.00
2023-04-16T00:39:19.109Z,92493.00
2023-04-16T00:40:19.195Z,92493.00
2023-04-16T00:41:19.141Z,92491.00
2023-04-16T00:42:19.141Z,92491.00
2023-04-16T00:43:19.157Z,92489.00
2023-04-16T00:44:19.175Z,92489.00
2023-04-16T00:45:19.181Z,92487.00
2023-04-16T00:46:19.231Z,92489.00
2023-04-16T00:47:19.260Z,92489.00
2023-04-16T00:48:19.261Z,92487.00
2023-04-16T00:49:19.360Z,92493.00
2023-04-16T00:50:19.338Z,92491.00
2023-04-16T00:51:19.430Z,92491.00
2023-04-16T00:52:19.387Z,92489.00
2023-04-16T00:53:19.418Z,92493.00
2023-04-16T00:54:19.438Z,92491.00
2023-04-16T00:55:19.465Z,92491.00
2023-04-16T00:56:20.653Z,92491.00
2023-04-16T00:57:19.512Z,92493.00
2023-04-16T00:58:19.556Z,92493.00
2023-04-16T00:59:19.581Z,92495.00
2023-04-16T01:00:19.638Z,92495.00
2023-04-16T01:01:19.688Z,92495.00
2023-04-16T01:02:19.753Z,92495.00
2023-04-16T01:03:19.898Z,92495.00
2023-04-16T01:04:19.856Z,92495.00
2023-04-16T01:05:19.864Z,92497.00
2023-04-16T01:06:19.875Z,92495.00
2023-04-16T01:07:19.988Z,92493.00
2023-04-16T01:08:19.937Z,92495.00
2023-04-16T01:09:19.965Z,92495.00
2023-04-16T01:10:19.992Z,92491.00
2023-04-16T01:11:20.056Z,92493.00
2023-04-16T01:12:20.123Z,92493.00
2023-04-16T01:13:20.095Z,92495.00
2023-04-16T01:14:20.134Z,92493.00
2023-04-16T01:15:20.173Z,92493.00
2023-04-16T01:16:20.212Z,92493.00
2023-04-16T01:17:20.251Z,92493.00
2023-04-16T01:18:20.269Z,92491.00
2023-04-16T01:19:20.307Z,92491.00
2023-04-16T01:20:20.358Z,92489.00
2023-04-16T01:21:20.361Z,92489.00
2023-04-16T01:22:20.497Z,92491.00
2023-04-16T01:23:20.453Z,92487.00
2023-04-16T01:24:20.497Z,92487.00
2023-04-16T01:25:20.498Z,92491.00
2023-04-16T01:26:20.538Z,92491.00
2023-04-16T01:27:20.595Z,92493.00
2023-04-16T01:28:20.595Z,92489.00
2023-04-16T01:29:20.629Z,92487.00
2023-04-16T01:30:20.653Z,92485.00
2023-04-16T01:31:20.672Z,92487.00
2023-04-16T01:32:20.766Z,92483.00
2023-04-16T01:33:20.711Z,92487.00
2023-04-16T01:34:20.721Z,92487.00
2023-04-16T01:35:20.752Z,92487.00
2023-04-16T01:36:20.774Z,92485.00
2023-04-16T01:37:20.802Z,92489.00
2023-04-16T01:38:20.832Z,92487.00
2023-04-16T01:39:20.854Z,92489.00
2023-04-16T01:40:20.892Z,92489.00
2023-04-16T01:41:20.919Z,92487.00
2023-04-16T01:42:20.998Z,92489.00
2023-04-16T01:43:20.972Z,92489.00
2023-04-16T01:44:21.050Z,92491.00
2023-04-16T01:45:21.016Z,92491.00
2023-04-16T01:46:21.084Z,92491.00
2023-04-16T01:47:21.080Z,92489.00
2023-04-16T01:48:21.090Z,92493.00
2023-04-16T01:49:21.120Z,92493.00
2023-04-16T01:50:21.152Z,92493.00
2023-04-16T01:51:21.188Z,92493.00
2023-04-16T01:52:21.218Z,92489.00
2023-04-16T01:53:21.223Z,92493.00
2023-04-16T01:54:21.283Z,92491.00
2023-04-16T01:55:21.261Z,92493.00
2023-04-16T01:56:21.280Z,92493.00
2023-04-16T01:57:21.288Z,92493.00
2023-04-16T01:58:21.312Z,92497.00
2023-04-16T01:59:21.327Z,92499.00
2023-04-16T02:00:21.488Z,92495.00
2023-04-16T02:01:21.402Z,92493.00
2023-04-16T02:02:21.498Z,92493.00
2023-04-16T02:03:21.702Z,92493.00
2023-04-16T02:04:21.446Z,92495.00
2023-04-16T02:05:21.454Z,92495.00
2023-04-16T02:06:21.481Z,92495.00
2023-04-16T02:07:21.513Z,92495.00
2023-04-16T02:08:21.556Z,92495.00
2023-04-16T02:09:21.545Z,92499.00
2023-04-16T02:10:21.553Z,92499.00
2023-04-16T02:11:21.610Z,92500.00
2023-04-16T02:12:21.639Z,92502.00
2023-04-16T02:13:21.645Z,92502.00
2023-04-16T02:14:21.699Z,92506.00
2023-04-16T02:15:21.658Z,92504.00
2023-04-16T02:16:21.805Z,92504.00
2023-04-16T02:17:21.865Z,92500.00
2023-04-16T02:18:21.725Z,92502.00
2023-04-16T02:19:21.745Z,92500.00
2023-04-16T02:20:21.781Z,92504.00
2023-04-16T02:21:22.471Z,92504.00
2023-04-16T02:22:21.852Z,92506.00
2023-04-16T02:23:21.839Z,92510.00
2023-04-16T02:24:21.865Z,92510.00
2023-04-16T02:25:21.861Z,92512.00
2023-04-16T02:26:21.888Z,92512.00
2023-04-16T02:27:21.887Z,92514.00
2023-04-16T02:28:21.905Z,92510.00
2023-04-16T02:29:21.939Z,92514.00
2023-04-16T02:30:21.948Z,92514.00
2023-04-16T02:31:22.026Z,92518.00
2023-04-16T02:32:22.019Z,92518.00
2023-04-16T02:33:22.029Z,92516.00
2023-04-16T02:34:22.068Z,92516.00
2023-04-16T02:35:22.062Z,92520.00
2023-04-16T02:36:22.169Z,92518.00
2023-04-16T02:37:22.106Z,92520.00
2023-04-16T02:38:22.128Z,92520.00
2023-04-16T02:39:22.146Z,92518.00
2023-04-16T02:40:22.173Z,92518.00
2023-04-16T02:41:22.181Z,92518.00
2023-04-16T02:42:22.213Z,92520.00
2023-04-16T02:43:22.226Z,92520.00
2023-04-16T02:44:22.256Z,92518.00
2023-04-16T02:45:22.278Z,92520.00
2023-04-16T02:46:22.370Z,92522.00
2023-04-16T02:47:22.327Z,92522.00
2023-04-16T02:48:22.341Z,92522.00
2023-04-16T02:49:22.358Z,92522.00
2023-04-16T02:50:22.384Z,92524.00
2023-04-16T02:51:22.405Z,92526.00
2023-04-16T02:52:22.438Z,92528.00
2023-04-16T02:53:22.493Z,92528.00
2023-04-16T02:54:22.485Z,92530.00
2023-04-16T02:55:22.506Z,92530.00
2023-04-16T02:56:22.614Z,92530.00
2023-04-16T02:57:22.553Z,92530.00
2023-04-16T02:58:22.602Z,92528.00
2023-04-16T02:59:22.621Z,92526.00
2023-04-16T03:00:22.658Z,92524.00
2023-04-16T03:01:22.690Z,92524.00
2023-04-16T03:02:22.787Z,92526.00
2023-04-16T03:03:22.773Z,92528.00
2023-04-16T03:04:22.844Z,92528.00
2023-04-16T03:05:22.757Z,92526.00
2023-04-16T03:06:22.792Z,92526.00
2023-04-16T03:07:22.817Z,92524.00
2023-04-16T03:08:22.838Z,92524.00
2023-04-16T03:09:22.868Z,92526.00
2023-04-16T03:10:22.877Z,92530.00
2023-04-16T03:11:22.900Z,92532.00
2023-04-16T03:12:22.929Z,92532.00
2023-04-16T03:13:23.027Z,92528.00
2023-04-16T03:14:22.963Z,92528.00
2023-04-16T03:15:23.001Z,92528.00
2023-04-16T03:16:23.119Z,92530.00
2023-04-16T03:17:23.055Z,92530.00
2023-04-16T03:18:23.047Z,92530.00
2023-04-16T03:19:23.064Z,92530.00
2023-04-16T03:20:23.081Z,92532.00
2023-04-16T03:21:23.111Z,92532.00
2023-04-16T03:22:23.142Z,92534.00
2023-04-16T03:23:23.167Z,92536.00
2023-04-16T03:24:23.175Z,92536.00
2023-04-16T03:25:23.196Z,92536.00
2023-04-16T03:26:23.222Z,92538.00
2023-04-16T03:27:23.235Z,92540.00
2023-04-16T03:28:23.260Z,92538.00
2023-04-16T03:29:23.292Z,92540.00
2023-04-16T03:30:23.310Z,92542.00
2023-04-16T03:31:23.368Z,92546.00
2023-04-16T03:32:23.368Z,92546.00
2023-04-16T03:33:23.374Z,92546.00
2023-04-16T03:34:23.404Z,92546.00
2023-04-16T03:35:23.515Z,92548.00
2023-04-16T03:36:23.459Z,92544.00
2023-04-16T03:37:23.467Z,92546.00
2023-04-16T03:38:23.486Z,92542.00
2023-04-16T03:39:23.509Z,92548.00
2023-04-16T03:40:23.536Z,92546.00
2023-04-16T03:41:23.560Z,92548.00
2023-04-16T03:42:23.584Z,92546.00
2023-04-16T03:43:23.609Z,92546.00
2023-04-16T03:44:23.623Z,92546.00
2023-04-16T03:45:23.656Z,92546.00
2023-04-16T03:46:23.681Z,92548.00
2023-04-16T03:47:26.505Z,92548.00
2023-04-16T03:48:23.742Z,92548.00
2023-04-16T03:49:23.739Z,92552.00
2023-04-16T03:50:23.756Z,92552.00
2023-04-16T03:51:23.770Z,92554.00
2023-04-16T03:52:23.797Z,92555.00
2023-04-16T03:53:23.814Z,92554.00
2023-04-16T03:54:23.812Z,92555.00
2023-04-16T03:55:23.827Z,92554.00
2023-04-16T03:56:23.850Z,92552.00
2023-04-16T03:57:23.915Z,92550.00
2023-04-16T03:58:23.887Z,92552.00
2023-04-16T03:59:23.901Z,92552.00
2023-04-16T04:00:24.004Z,92552.00
2023-04-16T04:01:23.946Z,92554.00
2023-04-16T04:02:24.117Z,92554.00
2023-04-16T04:03:24.230Z,92555.00
2023-04-16T04:04:24.065Z,92554.00
2023-04-16T04:05:24.020Z,92557.00
2023-04-16T04:06:24.102Z,92557.00
2023-04-16T04:07:24.055Z,92557.00
2023-04-16T04:08:24.073Z,92557.00
2023-04-16T04:09:24.102Z,92559.00
2023-04-16T04:10:24.112Z,92561.00
2023-04-16T04:11:24.129Z,92563.00
2023-04-16T04:12:24.149Z,92561.00
2023-04-16T04:13:24.176Z,92559.00
2023-04-16T04:14:24.200Z,92561.00
2023-04-16T04:15:24.200Z,92563.00
2023-04-16T04:16:24.236Z,92563.00
2023-04-16T04:17:24.274Z,92563.00
2023-04-16T04:18:24.270Z,92563.00
2023-04-16T04:19:24.521Z,92565.00
2023-04-16T04:20:24.314Z,92567.00
2023-04-16T04:21:24.330Z,92565.00
2023-04-16T04:22:24.347Z,92567.00
2023-04-16T04:23:24.357Z,92565.00
2023-04-16T04:24:24.459Z,92567.00
2023-04-16T04:25:24.388Z,92569.00
2023-04-16T04:26:24.529Z,92573.00
2023-04-16T04:27:24.426Z,92573.00
2023-04-16T04:28:24.442Z,92575.00
2023-04-16T04:29:24.457Z,92577.00
2023-04-16T04:30:24.472Z,92573.00
2023-04-16T04:31:24.554Z,92573.00
2023-04-16T04:32:24.592Z,92575.00
2023-04-16T04:33:24.518Z,92573.00
2023-04-16T04:34:24.520Z,92575.00
2023-04-16T04:35:24.539Z,92575.00
2023-04-16T04:36:24.558Z,92577.00
2023-04-16T04:37:24.578Z,92575.00
2023-04-16T04:38:24.593Z,92585.00
2023-04-16T04:39:24.607Z,92585.00
2023-04-16T04:40:24.620Z,92589.00
2023-04-16T04:41:24.643Z,92591.00
2023-04-16T04:42:24.642Z,92589.00
2023-04-16T04:43:25.045Z,92591.00
2023-04-16T04:44:24.696Z,92592.00
2023-04-16T04:45:24.732Z,92594.00
2023-04-16T04:46:24.752Z,92596.00
2023-04-16T04:47:24.773Z,92596.00
2023-04-16T04:48:24.761Z,92598.00
2023-04-16T04:49:24.789Z,92596.00
2023-04-16T04:50:24.792Z,92600.00
2023-04-16T04:51:24.804Z,92600.00
2023-04-16T04:52:24.920Z,92602.00
2023-04-16T04:53:24.854Z,92604.00
2023-04-16T04:54:24.874Z,92604.00
2023-04-16T04:55:24.933Z,92604.00
2023-04-16T04:56:24.889Z,92604.00
2023-04-16T04:57:24.983Z,92604.00
2023-04-16T04:58:24.938Z,92606.00
2023-04-16T04:59:24.949Z,92608.00
2023-04-16T05:00:24.958Z,92608.00
2023-04-16T05:01:25.035Z,92608.00
2023-04-16T05:02:25.047Z,92608.00
2023-04-16T05:03:25.037Z,92608.00
2023-04-16T05:04:24.993Z,92608.00
2023-04-16T05:05:25.118Z,92608.00
2023-04-16T05:06:25.463Z,92610.00
2023-04-16T05:07:25.022Z,92608.00
2023-04-16T05:08:25.042Z,92610.00
2023-04-16T05:09:25.040Z,92608.00
2023-04-16T05:10:25.052Z,92612.00
2023-04-16T05:11:25.091Z,92614.00
2023-04-16T05:12:25.091Z,92614.00
2023-04-16T05:13:25.175Z,92612.00
2023-04-16T05:14:25.126Z,92612.00
2023-04-16T05:15:25.101Z,92614.00
2023-04-16T05:16:25.124Z,92612.00
2023-04-16T05:17:25.149Z,92616.00
2023-04-16T05:18:25.137Z,92618.00
2023-04-16T05:19:25.168Z,92622.00
2023-04-16T05:20:25.165Z,92626.00
2023-04-16T05:21:25.168Z,92628.00
2023-04-16T05:22:25.173Z,92630.00
2023-04-16T05:23:25.198Z,92628.00
2023-04-16T05:24:25.215Z,92628.00
2023-04-16T05:25:25.226Z,92626.00
2023-04-16T05:26:25.242Z,92628.00
2023-04-16T05:27:26.107Z,92628.00
2023-04-16T05:28:25.259Z,92626.00
2023-04-16T05:29:25.272Z,92624.00
2023-04-16T05:30:25.268Z,92622.00
2023-04-16T05:31:25.321Z,92624.00
2023-04-16T05:32:25.339Z,92624.00
2023-04-16T05:33:25.310Z,92624.00
2023-04-16T05:34:25.317Z,92626.00
2023-04-16T05:35:25.336Z,92628.00
2023-04-16T05:36:25.358Z,92626.00
2023-04-16T05:37:25.359Z,92624.00
2023-04-16T05:38:25.368Z,92624.00
2023-04-16T05:39:25.427Z,92624.00
2023-04-16T05:40:25.389Z,92624.00
2023-04-16T05:41:25.411Z,92626.00
2023-04-16T05:42:25.421Z,92624.00
2023-04-16T05:43:25.433Z,92626.00
2023-04-16T05:44:25.452Z,92626.00
2023-04-16T05:45:27.460Z,92626.00
2023-04-16T05:46:25.687Z,92626.00
2023-04-16T05:47:25.678Z,92626.00
2023-04-16T05:48:25.699Z,92630.00
2023-04-16T05:49:25.745Z,92634.00
2023-04-16T05:50:25.772Z,92632.00
2023-04-16T05:51:25.803Z,92632.00
2023-04-16T05:52:25.835Z,92634.00
2023-04-16T05:53:25.873Z,92636.00
2023-04-16T05:54:25.895Z,92634.00
2023-04-16T05:55:25.934Z,92634.00
2023-04-16T05:56:25.968Z,92634.00
2023-04-16T05:57:26.000Z,92636.00
2023-04-16T05:58:26.044Z,92636.00
2023-04-16T05:59:26.090Z,92638.00
2023-04-16T06:00:26.101Z,92639.00
2023-04-16T06:01:26.121Z,92641.00
2023-04-16T06:02:26.234Z,92643.00
2023-04-16T06:03:26.279Z,92645.00
2023-04-16T06:04:26.224Z,92643.00
2023-04-16T06:05:26.293Z,92643.00
2023-04-16T06:06:26.283Z,92643.00
2023-04-16T06:07:26.309Z,92645.00
2023-04-16T06:08:26.351Z,92645.00
2023-04-16T06:09:26.362Z,92651.00
2023-04-16T06:10:26.395Z,92649.00
2023-04-16T06:11:26.424Z,92653.00
2023-04-16T06:12:26.571Z,92651.00
2023-04-16T06:13:26.500Z,92649.00
2023-04-16T06:14:26.620Z,92651.00
2023-04-16T06:15:26.549Z,92651.00
2023-04-16T06:16:26.671Z,92653.00
2023-04-16T06:17:26.628Z,92655.00
2023-04-16T06:18:26.644Z,92653.00
2023-04-16T06:19:26.686Z,92655.00
2023-04-16T06:20:26.721Z,92659.00
2023-04-16T06:21:26.828Z,92653.00
2023-04-16T06:22:26.785Z,92655.00
2023-04-16T06:23:26.822Z,92653.00
2023-04-16T06:24:26.834Z,92651.00
2023-04-16T06:25:26.873Z,92649.00
2023-04-16T06:26:26.894Z,92649.00
2023-04-16T06:27:26.932Z,92649.00
2023-04-16T06:28:26.962Z,92649.00
2023-04-16T06:29:36.871Z,92649.00
2023-04-16T06:30:28.057Z,92651.00
2023-04-16T06:31:27.055Z,92649.00
2023-04-16T06:32:27.067Z,92653.00
2023-04-16T06:33:27.087Z,92653.00
2023-04-16T06:34:27.063Z,92653.00
2023-04-16T06:35:27.080Z,92651.00
2023-04-16T06:36:27.105Z,92653.00
2023-04-16T06:37:27.184Z,92653.00
2023-04-16T06:38:27.126Z,92655.00
2023-04-16T06:39:27.133Z,92655.00
2023-04-16T06:40:27.171Z,92655.00
2023-04-16T06:41:27.162Z,92657.00
2023-04-16T06:42:27.177Z,92659.00
2023-04-16T06:43:27.210Z,92659.00
2023-04-16T06:44:27.211Z,92659.00
2023-04-16T06:45:27.222Z,92661.00
2023-04-16T06:46:27.288Z,92661.00
2023-04-16T06:47:27.328Z,92657.00
2023-04-16T06:48:27.269Z,92657.00
2023-04-16T06:49:27.362Z,92661.00
2023-04-16T06:50:27.309Z,92657.00
2023-04-16T06:51:27.320Z,92661.00
2023-04-16T06:52:27.342Z,92661.00
2023-04-16T06:53:27.357Z,92663.00
2023-04-16T06:54:27.384Z,92663.00
2023-04-16T06:55:27.385Z,92659.00
2023-04-16T06:56:27.403Z,92665.00
2023-04-16T06:57:27.429Z,92665.00
2023-04-16T06:58:27.453Z,92667.00
2023-04-16T06:59:27.445Z,92665.00
2023-04-16T07:00:27.463Z,92665.00
2023-04-16T07:01:27.538Z,92667.00
2023-04-16T07:02:27.628Z,92667.00
2023-04-16T07:03:27.704Z,92665.00
2023-04-16T07:04:27.583Z,92663.00
2023-04-16T07:05:27.579Z,92665.00
2023-04-16T07:06:27.620Z,92665.00
2023-04-16T07:07:27.644Z,92665.00
2023-04-16T07:08:27.673Z,92667.00
2023-04-16T07:09:27.717Z,92669.00
2023-04-16T07:10:27.724Z,92669.00
2023-04-16T07:11:27.766Z,92669.00
2023-04-16T07:12:27.790Z,92669.00
2023-04-16T07:13:27.800Z,92667.00
2023-04-16T07:14:27.862Z,92667.00
2023-04-16T07:15:27.869Z,92667.00
2023-04-16T07:16:27.936Z,92669.00
2023-04-16T07:17:27.937Z,92671.00
2023-04-16T07:18:27.960Z,92669.00
2023-04-16T07:19:28.068Z,92671.00
2023-04-16T07:20:28.017Z,92671.00
2023-04-16T07:21:28.059Z,92671.00
2023-04-16T07:22:28.087Z,92673.00
2023-04-16T07:23:28.120Z,92675.00
2023-04-16T07:24:28.146Z,92673.00
2023-04-16T07:25:28.166Z,92671.00
2023-04-16T07:26:28.193Z,92673.00
2023-04-16T07:27:28.231Z,92675.00
2023-04-16T07:28:28.280Z,92675.00
2023-04-16T07:29:28.293Z,92675.00
2023-04-16T07:30:28.334Z,92675.00
2023-04-16T07:31:28.378Z,92677.00
2023-04-16T07:32:28.428Z,92683.00
2023-04-16T07:33:28.395Z,92681.00
2023-04-16T07:34:28.433Z,92683.00
2023-04-16T07:35:28.475Z,92683.00
2023-04-16T07:36:28.501Z,92685.00
2023-04-16T07:37:28.537Z,92685.00
2023-04-16T07:38:28.562Z,92687.00
2023-04-16T07:39:28.596Z,92687.00
2023-04-16T07:40:28.626Z,92687.00
2023-04-16T07:41:28.662Z,92687.00
2023-04-16T07:42:29.585Z,92689.00
2023-04-16T07:43:28.727Z,92691.00
2023-04-16T07:44:28.744Z,92691.00
2023-04-16T07:45:28.801Z,92693.00
2023-04-16T07:46:33.351Z,92693.00
2023-04-16T07:47:29.857Z,92693.00
2023-04-16T07:48:29.574Z,92693.00
2023-04-16T07:49:28.863Z,92693.00
2023-04-16T07:50:28.874Z,92693.00
2023-04-16T07:51:28.890Z,92693.00
2023-04-16T07:52:28.917Z,92693.00
2023-04-16T07:53:28.922Z,92693.00
2023-04-16T07:54:29.199Z,92696.00
2023-04-16T07:55:28.968Z,92696.00
2023-04-16T07:56:28.966Z,92700.00
2023-04-16T07:57:28.990Z,92698.00
2023-04-16T07:58:29.015Z,92700.00
2023-04-16T07:59:29.428Z,92700.00
2023-04-16T08:00:29.044Z,92700.00
2023-04-16T08:01:29.057Z,92704.00
2023-04-16T08:02:29.249Z,92704.00
2023-04-16T08:03:29.308Z,92704.00
2023-04-16T08:04:29.233Z,92704.00
2023-04-16T08:05:29.242Z,92700.00
2023-04-16T08:06:29.137Z,92700.00
2023-04-16T08:07:29.172Z,92702.00
2023-04-16T08:08:29.183Z,92700.00
2023-04-16T08:09:30.095Z,92704.00
2023-04-16T08:10:29.222Z,92708.00
2023-04-16T08:11:29.237Z,92708.00
2023-04-16T08:12:29.248Z,92710.00
2023-04-16T08:13:30.077Z,92710.00
2023-04-16T08:14:29.303Z,92708.00
2023-04-16T08:15:29.539Z,92712.00
2023-04-16T08:16:29.341Z,92714.00
2023-04-16T08:17:29.357Z,92712.00
2023-04-16T08:18:29.361Z,92714.00
2023-04-16T08:19:29.372Z,92714.00
2023-04-16T08:20:29.470Z,92712.00
2023-04-16T08:21:29.401Z,92716.00
2023-04-16T08:22:29.427Z,92716.00
2023-04-16T08:23:29.447Z,92718.00
2023-04-16T08:24:29.477Z,92718.00
2023-04-16T08:25:29.498Z,92718.00
2023-04-16T08:26:29.530Z,92718.00
2023-04-16T08:27:29.563Z,92718.00
2023-04-16T08:28:29.597Z,92718.00
2023-04-16T08:29:29.611Z,92718.00
2023-04-16T08:30:29.640Z,92718.00
2023-04-16T08:31:29.690Z,92718.00
2023-04-16T08:32:29.721Z,92720.00
2023-04-16T08:33:29.745Z,92722.00
2023-04-16T08:34:29.745Z,92720.00
2023-04-16T08:35:29.778Z,92722.00
2023-04-16T08:36:29.804Z,92728.00
2023-04-16T08:37:29.835Z,92726.00
2023-04-16T08:38:29.924Z,92726.00
2023-04-16T08:39:29.895Z,92728.00
2023-04-16T08:40:29.920Z,92728.00
2023-04-16T08:41:29.966Z,92726.00
2023-04-16T08:42:29.979Z,92726.00
2023-04-16T08:43:30.002Z,92726.00
2023-04-16T08:44:30.036Z,92726.00
2023-04-16T08:45:30.061Z,92726.00
2023-04-16T08:46:30.170Z,92724.00
2023-04-16T08:47:30.148Z,92728.00
2023-04-16T08:48:30.152Z,92728.00
2023-04-16T08:49:30.150Z,92728.00
2023-04-16T08:50:30.177Z,92726.00
2023-04-16T08:51:30.220Z,92726.00
2023-04-16T08:52:30.228Z,92726.00
2023-04-16T08:53:30.251Z,92726.00
2023-04-16T08:54:30.269Z,92724.00
2023-04-16T08:55:30.345Z,92724.00
2023-04-16T08:56:30.317Z,92722.00
2023-04-16T08:57:30.395Z,92722.00
2023-04-16T08:58:30.381Z,92724.00
2023-04-16T08:59:30.427Z,92726.00
2023-04-16T09:00:30.426Z,92726.00
2023-04-16T09:01:30.480Z,92726.00
2023-04-16T09:02:31.270Z,92726.00
2023-04-16T09:03:30.555Z,92728.00
2023-04-16T09:04:30.639Z,92730.00
2023-04-16T09:05:30.567Z,92732.00
2023-04-16T09:06:30.585Z,92732.00
2023-04-16T09:07:30.607Z,92732.00
2023-04-16T09:08:30.636Z,92730.00
2023-04-16T09:09:31.584Z,92730.00
2023-04-16T09:10:30.684Z,92734.00
2023-04-16T09:11:30.708Z,92730.00
2023-04-16T09:12:30.867Z,92734.00
2023-04-16T09:13:30.773Z,92734.00
2023-04-16T09:14:30.793Z,92734.00
2023-04-16T09:15:31.485Z,92734.00
2023-04-16T09:16:30.895Z,92736.00
2023-04-16T09:17:31.028Z,92738.00
2023-04-16T09:18:31.005Z,92738.00
2023-04-16T09:19:31.013Z,92738.00
2023-04-16T09:20:30.984Z,92732.00
2023-04-16T09:21:31.012Z,92736.00
2023-04-16T09:22:31.626Z,92734.00
2023-04-16T09:23:31.124Z,92734.00
2023-04-16T09:24:31.079Z,92736.00
2023-04-16T09:25:31.114Z,92736.00
2023-04-16T09:26:31.144Z,92738.00
2023-04-16T09:27:31.174Z,92738.00
2023-04-16T09:28:31.199Z,92736.00
2023-04-16T09:29:31.216Z,92738.00
2023-04-16T09:30:31.243Z,92736.00
2023-04-16T09:31:31.289Z,92738.00
2023-04-16T09:32:31.299Z,92740.00
2023-04-16T09:33:32.372Z,92740.00
2023-04-16T09:34:31.321Z,92741.00
2023-04-16T09:35:31.348Z,92741.00
2023-04-16T09:36:31.384Z,92741.00
2023-04-16T09:37:31.398Z,92743.00
2023-04-16T09:38:31.403Z,92745.00
2023-04-16T09:39:31.420Z,92743.00
2023-04-16T09:40:31.446Z,92743.00
2023-04-16T09:41:31.477Z,92745.00
2023-04-16T09:42:31.489Z,92745.00
2023-04-16T09:43:31.511Z,92743.00
2023-04-16T09:44:31.532Z,92745.00
2023-04-16T09:45:31.605Z,92743.00
2023-04-16T09:46:31.578Z,92741.00
2023-04-16T09:47:31.693Z,92741.00
2023-04-16T09:48:31.624Z,92740.00
2023-04-16T09:49:31.647Z,92740.00
2023-04-16T09:50:31.674Z,92740.00
2023-04-16T09:51:31.696Z,92741.00
2023-04-16T09:52:31.713Z,92741.00
2023-04-16T09:53:31.751Z,92743.00
2023-04-16T09:54:31.761Z,92743.00
2023-04-16T09:55:31.809Z,92743.00
2023-04-16T09:56:31.807Z,92743.00
2023-04-16T09:57:31.836Z,92741.00
2023-04-16T09:58:31.863Z,92743.00
2023-04-16T09:59:31.876Z,92747.00
2023-04-16T10:00:31.923Z,92747.00
2023-04-16T10:01:32.982Z,92747.00
2023-04-16T10:02:32.014Z,92745.00
2023-04-16T10:03:32.163Z,92747.00
2023-04-16T10:04:31.987Z,92747.00
2023-04-16T10:05:32.011Z,92743.00
2023-04-16T10:06:32.045Z,92747.00
2023-04-16T10:07:32.062Z,92747.00
2023-04-16T10:08:32.096Z,92747.00
2023-04-16T10:09:32.113Z,92741.00
2023-04-16T10:10:32.141Z,92743.00
2023-04-16T10:11:32.176Z,92743.00
2023-04-16T10:12:32.209Z,92747.00
2023-04-16T10:13:32.237Z,92745.00
2023-04-16T10:14:32.263Z,92745.00
2023-04-16T10:15:32.409Z,92743.00
2023-04-16T10:16:32.382Z,92745.00
2023-04-16T10:17:32.359Z,92741.00
2023-04-16T10:18:32.396Z,92743.00
2023-04-16T10:19:32.407Z,92741.00
2023-04-16T10:20:32.428Z,92741.00
2023-04-16T10:21:32.465Z,92743.00
2023-04-16T10:22:32.491Z,92745.00
2023-04-16T10:23:32.497Z,92747.00
2023-04-16T10:24:32.549Z,92747.00
2023-04-16T10:25:32.554Z,92745.00
2023-04-16T10:26:32.566Z,92745.00
2023-04-16T10:27:32.591Z,92745.00
2023-04-16T10:28:32.600Z,92743.00
2023-04-16T10:29:32.615Z,92743.00
2023-04-16T10:30:32.790Z,92747.00
2023-04-16T10:31:32.678Z,92747.00
2023-04-16T10:32:32.754Z,92745.00
2023-04-16T10:33:32.704Z,92745.00
2023-04-16T10:34:32.717Z,92745.00
2023-04-16T10:35:32.807Z,92743.00
2023-04-16T10:36:32.761Z,92743.00
2023-04-16T10:37:32.776Z,92741.00
2023-04-16T10:38:32.876Z,92741.00
2023-04-16T10:39:32.835Z,92740.00
2023-04-16T10:40:32.942Z,92740.00
2023-04-16T10:41:32.910Z,92740.00
2023-04-16T10:42:32.996Z,92738.00
2023-04-16T10:43:32.947Z,92740.00
2023-04-16T10:44:32.982Z,92743.00
2023-04-16T10:45:32.972Z,92740.00
2023-04-16T10:46:33.070Z,92740.00
2023-04-16T10:47:33.060Z,92738.00
2023-04-16T10:48:46.560Z,92738.00
2023-04-16T10:49:34.105Z,92736.00
2023-04-16T10:50:33.038Z,92738.00
2023-04-16T10:51:33.050Z,92736.00
2023-04-16T10:52:33.067Z,92732.00
2023-04-16T10:53:33.088Z,92738.00
2023-04-16T10:54:33.090Z,92738.00
2023-04-16T10:55:33.156Z,92738.00
2023-04-16T10:56:33.110Z,92738.00
2023-04-16T10:57:33.127Z,92734.00
2023-04-16T10:58:33.129Z,92734.00
2023-04-16T10:59:33.123Z,92732.00
2023-04-16T11:00:33.147Z,92732.00
2023-04-16T11:01:33.212Z,92734.00
2023-04-16T11:02:33.358Z,92734.00
2023-04-16T11:03:33.279Z,92732.00
2023-04-16T11:04:33.401Z,92730.00
2023-04-16T11:05:33.209Z,92730.00
2023-04-16T11:06:33.202Z,92730.00
2023-04-16T11:07:33.232Z,92730.00
2023-04-16T11:08:35.030Z,92730.00
2023-04-16T11:09:34.232Z,92732.00
2023-04-16T11:10:33.245Z,92732.00
2023-04-16T11:11:33.257Z,92728.00
2023-04-16T11:12:33.274Z,92728.00
2023-04-16T11:13:33.270Z,92730.00
2023-04-16T11:14:33.272Z,92728.00
2023-04-16T11:15:34.155Z,92732.00
2023-04-16T11:16:33.435Z,92728.00
2023-04-16T11:17:33.345Z,92728.00
2023-04-16T11:18:33.305Z,92728.00
2023-04-16T11:19:33.315Z,92728.00
2023-04-16T11:20:33.340Z,92726.00
2023-04-16T11:21:33.359Z,92726.00
2023-04-16T11:22:33.343Z,92726.00
2023-04-16T11:23:33.351Z,92728.00
2023-04-16T11:24:33.365Z,92726.00
2023-04-16T11:25:33.367Z,92724.00
2023-04-16T11:26:33.381Z,92724.00
2023-04-16T11:27:33.399Z,92722.00
2023-04-16T11:28:33.429Z,92720.00
2023-04-16T11:29:33.412Z,92724.00
2023-04-16T11:30:33.431Z,92726.00
2023-04-16T11:31:33.516Z,92726.00
2023-04-16T11:32:33.597Z,92724.00
2023-04-16T11:33:33.615Z,92724.00
2023-04-16T11:34:33.745Z,92728.00
2023-04-16T11:35:33.774Z,92728.00
2023-04-16T11:36:33.851Z,92728.00
2023-04-16T11:37:33.928Z,92726.00
2023-04-16T11:38:34.006Z,92724.00
2023-04-16T11:39:34.074Z,92726.00
2023-04-16T11:40:34.150Z,92726.00
2023-04-16T11:41:34.223Z,92726.00
2023-04-16T11:42:35.219Z,92728.00
2023-04-16T11:43:34.383Z,92724.00
2023-04-16T11:44:34.445Z,92728.00